createdAt,value
2019-04-01T00:01:47.094Z,18.42
2019-04-01T00:04:15.773Z,19.98
2019-04-01T00:06:44.410Z,18.35
2019-04-01T00:09:12.900Z,18.42
2019-04-01T00:11:41.581Z,18.48
2019-04-01T00:14:10.220Z,18.10
2019-04-01T00:16:38.717Z,17.42
2019-04-01T00:19:07.541Z,17.50
2019-04-01T00:21:36.176Z,16.85
2019-04-01T00:24:04.752Z,17.12
2019-04-01T00:26:33.299Z,17.00
2019-04-01T00:29:01.936Z,15.72
2019-04-01T00:31:30.573Z,15.88
2019-04-01T00:33:59.290Z,16.02
2019-04-01T00:36:27.800Z,17.73
2019-04-01T00:38:56.432Z,14.55
2019-04-01T00:41:25.127Z,16.32
2019-04-01T00:43:54.772Z,14.43
2019-04-01T00:46:23.679Z,15.35
2019-04-01T00:48:52.375Z,13.38
2019-04-01T00:51:21.016Z,15.93
2019-04-01T00:53:49.549Z,15.05
2019-04-01T00:56:18.279Z,14.28
2019-04-01T00:58:46.785Z,13.60
2019-04-01T01:01:15.421Z,14.45
2019-04-01T01:03:44.055Z,14.55
2019-04-01T01:06:12.691Z,14.20
2019-04-01T01:08:41.231Z,13.35
2019-04-01T01:11:09.760Z,13.75
2019-04-01T01:13:38.399Z,14.47
2019-04-01T01:16:07.066Z,15.32
2019-04-01T01:18:35.570Z,14.65
2019-04-01T01:21:04.210Z,15.65
2019-04-01T01:23:32.884Z,16.15
2019-04-01T01:26:01.528Z,15.08
2019-04-01T01:28:30.011Z,14.50
2019-04-01T01:30:58.612Z,15.50
2019-04-01T01:33:27.246Z,16.17
2019-04-01T01:35:55.749Z,15.60
2019-04-01T01:38:24.421Z,13.70
2019-04-01T01:40:53.071Z,15.40
2019-04-01T01:43:21.570Z,14.43
2019-04-01T01:45:50.353Z,14.87
2019-04-01T01:48:18.993Z,14.58
2019-04-01T01:50:48.606Z,14.18
2019-04-01T01:53:17.258Z,14.63
2019-04-01T01:55:45.744Z,14.18
2019-04-01T01:58:14.378Z,17.05
2019-04-01T02:00:43.052Z,17.87
2019-04-01T02:03:11.635Z,17.00
2019-04-01T02:05:40.203Z,18.25
2019-04-01T02:08:09.127Z,15.78
2019-04-01T02:10:37.762Z,16.77
2019-04-01T02:13:06.371Z,19.27
2019-04-01T02:15:34.988Z,19.25
2019-04-01T02:18:03.655Z,20.92
2019-04-01T02:20:32.357Z,20.50
2019-04-01T02:23:00.859Z,19.87
2019-04-01T02:25:29.376Z,20.90
2019-04-01T02:27:58.258Z,22.00
2019-04-01T02:30:26.909Z,19.23
2019-04-01T02:32:55.401Z,20.50
2019-04-01T02:35:24.202Z,22.07
2019-04-01T02:37:52.836Z,23.70
2019-04-01T02:40:22.087Z,25.88
2019-04-01T02:42:51.442Z,22.73
2019-04-01T02:45:19.913Z,22.07
2019-04-01T02:47:48.546Z,20.60
2019-04-01T02:50:17.410Z,20.43
2019-04-01T02:52:45.990Z,19.90
2019-04-01T02:55:14.615Z,18.92
2019-04-01T02:57:43.228Z,18.15
2019-04-01T03:00:12.150Z,17.55
2019-04-01T03:02:40.795Z,19.33
2019-04-01T03:05:09.567Z,17.83
2019-04-01T03:07:38.225Z,17.12
2019-04-01T03:10:06.861Z,17.42
2019-04-01T03:12:35.532Z,17.37
2019-04-01T03:15:05.765Z,17.87
2019-04-01T03:17:34.327Z,17.30
2019-04-01T03:20:03.060Z,16.42
2019-04-01T03:22:31.700Z,17.37
2019-04-01T03:25:00.534Z,15.20
2019-04-01T03:27:29.334Z,19.50
2019-04-01T03:29:57.897Z,19.05
2019-04-01T03:32:26.755Z,17.90
2019-04-01T03:34:55.442Z,18.55
2019-04-01T03:37:24.148Z,18.87
2019-04-01T03:39:52.804Z,17.80
2019-04-01T03:42:21.398Z,18.77
2019-04-01T03:44:54.675Z,18.30
2019-04-01T03:47:20.259Z,19.20
2019-04-01T03:49:48.929Z,19.00
2019-04-01T03:52:17.426Z,20.12
2019-04-01T03:54:46.018Z,18.10
2019-04-01T03:57:14.894Z,16.63
2019-04-01T03:59:43.520Z,17.87
2019-04-01T04:02:12.012Z,16.27
2019-04-01T04:04:40.541Z,17.60
2019-04-01T04:07:09.199Z,15.85
2019-04-01T04:09:37.829Z,21.73
2019-04-01T04:12:12.940Z,14.50
2019-04-01T04:14:51.077Z,13.90
2019-04-01T04:17:17.629Z,13.63
2019-04-01T04:19:46.334Z,11.53
2019-04-01T04:22:14.968Z,13.20
2019-04-01T04:24:43.674Z,13.53
2019-04-01T04:27:12.276Z,13.58
2019-04-01T04:29:40.811Z,12.82
2019-04-01T04:32:09.415Z,13.70
2019-04-01T04:34:38.084Z,13.48
2019-04-01T04:37:06.652Z,12.23
2019-04-01T04:39:35.300Z,11.50
2019-04-01T04:42:03.997Z,12.00
2019-04-01T04:44:32.642Z,11.75
2019-04-01T04:47:01.209Z,13.20
2019-04-01T04:49:29.744Z,14.03
2019-04-01T04:51:58.413Z,16.12
2019-04-01T04:54:26.892Z,14.47
2019-04-01T04:56:55.564Z,14.18
2019-04-01T04:59:24.206Z,13.38
2019-04-01T05:01:52.710Z,14.65
2019-04-01T05:04:21.403Z,13.55
2019-04-01T05:06:50.043Z,15.72
2019-04-01T05:09:18.675Z,15.90
2019-04-01T05:11:47.214Z,15.88
2019-04-01T05:14:15.719Z,17.77
2019-04-01T05:16:44.521Z,15.53
2019-04-01T05:19:13.223Z,15.23
2019-04-01T05:21:42.649Z,18.30
2019-04-01T05:24:12.096Z,18.65
2019-04-01T05:26:44.064Z,29.32
2019-04-01T05:29:15.271Z,32.35
2019-04-01T05:31:46.822Z,29.90
2019-04-01T05:34:17.579Z,21.15
2019-04-01T05:36:47.231Z,20.25
2019-04-01T05:39:16.147Z,19.60
2019-04-01T05:41:45.392Z,19.62
2019-04-01T05:44:14.286Z,21.02
2019-04-01T05:46:42.930Z,20.65
2019-04-01T05:49:11.856Z,22.50
2019-04-01T05:51:40.495Z,20.80
2019-04-01T05:54:09.137Z,21.25
2019-04-01T05:56:37.780Z,21.42
2019-04-01T05:59:06.353Z,18.95
2019-04-01T06:01:39.571Z,21.15
2019-04-01T06:04:08.319Z,20.37
2019-04-01T06:06:37.558Z,20.57
2019-04-01T06:09:08.141Z,18.90
2019-04-01T06:11:37.592Z,20.15
2019-04-01T06:14:06.322Z,19.10
2019-04-01T06:16:35.381Z,18.90
2019-04-01T06:19:05.947Z,19.42
2019-04-01T06:21:35.287Z,19.17
2019-04-01T06:24:04.506Z,20.20
2019-04-01T06:26:33.177Z,19.92
2019-04-01T06:29:01.844Z,19.80
2019-04-01T06:31:30.471Z,21.30
2019-04-01T06:33:59.211Z,19.25
2019-04-01T06:36:27.855Z,20.72
2019-04-01T06:38:56.499Z,21.45
2019-04-01T06:41:25.069Z,21.33
2019-04-01T06:43:53.886Z,22.60
2019-04-01T06:46:22.519Z,20.57
2019-04-01T06:48:51.162Z,20.40
2019-04-01T06:51:19.941Z,20.57
2019-04-01T06:53:48.677Z,20.68
2019-04-01T06:56:17.252Z,20.30
2019-04-01T06:58:46.045Z,21.97
2019-04-01T07:01:14.888Z,21.37
2019-04-01T07:03:43.521Z,21.75
2019-04-01T07:06:12.171Z,23.00
2019-04-01T07:08:40.917Z,21.70
2019-04-01T07:11:09.766Z,21.27
2019-04-01T07:13:40.142Z,22.22
2019-04-01T07:16:15.282Z,22.02
2019-04-01T07:18:39.117Z,21.70
2019-04-01T07:21:07.821Z,20.68
2019-04-01T07:23:36.470Z,20.82
2019-04-01T07:26:05.101Z,21.70
2019-04-01T07:28:33.825Z,22.80
2019-04-01T07:31:02.579Z,21.30
2019-04-01T07:33:31.225Z,21.90
2019-04-01T07:36:00.004Z,21.17
2019-04-01T07:38:28.572Z,21.33
2019-04-01T07:40:59.185Z,21.33
2019-04-01T07:43:27.875Z,19.37
2019-04-01T07:45:59.885Z,18.60
2019-04-01T07:48:26.826Z,18.23
2019-04-01T07:50:55.673Z,17.57
2019-04-01T07:53:24.312Z,23.85
2019-04-01T07:55:53.250Z,21.55
2019-04-01T07:58:22.035Z,20.20
2019-04-01T08:00:50.677Z,19.15
2019-04-01T08:03:19.316Z,19.60
2019-04-01T08:05:48.192Z,19.98
2019-04-01T08:08:17.232Z,20.08
2019-04-01T08:10:45.876Z,20.17
2019-04-01T08:13:14.573Z,20.45
2019-04-01T08:15:43.203Z,19.25
2019-04-01T08:18:11.842Z,20.20
2019-04-01T08:20:40.514Z,18.87
2019-04-01T08:23:09.168Z,19.57
2019-04-01T08:25:37.812Z,19.95
2019-04-01T08:28:06.570Z,20.50
2019-04-01T08:30:35.223Z,19.90
2019-04-01T08:33:04.100Z,17.65
2019-04-01T08:35:32.778Z,17.62
2019-04-01T08:38:01.422Z,13.18
2019-04-01T08:40:29.995Z,14.20
2019-04-01T08:42:58.671Z,14.20
2019-04-01T08:45:27.317Z,14.43
2019-04-01T08:47:56.064Z,15.05
2019-04-01T08:50:24.847Z,13.90
2019-04-01T08:52:53.604Z,13.98
2019-04-01T08:55:22.172Z,19.25
2019-04-01T08:57:50.828Z,15.80
2019-04-01T09:00:19.783Z,13.00
2019-04-01T09:02:48.527Z,13.72
2019-04-01T09:05:17.197Z,13.15
2019-04-01T09:07:45.766Z,12.78
2019-04-01T09:10:14.613Z,12.73
2019-04-01T09:12:44.146Z,11.05
2019-04-01T09:15:13.402Z,11.25
2019-04-01T09:17:42.067Z,12.20
2019-04-01T09:20:11.543Z,10.82
2019-04-01T09:22:40.195Z,11.15
2019-04-01T09:25:08.833Z,9.95
2019-04-01T09:27:37.440Z,8.75
2019-04-01T09:30:08.192Z,9.65
2019-04-01T09:32:36.835Z,9.20
2019-04-01T09:35:06.968Z,9.20
2019-04-01T09:37:35.608Z,9.50
2019-04-01T09:40:07.153Z,9.85
2019-04-01T09:42:35.721Z,10.55
2019-04-01T09:45:06.756Z,10.58
2019-04-01T09:47:35.450Z,12.37
2019-04-01T09:50:05.099Z,10.05
2019-04-01T09:52:33.608Z,10.18
2019-04-01T09:55:05.890Z,10.50
2019-04-01T09:57:32.662Z,9.08
2019-04-01T10:00:01.162Z,10.28
2019-04-01T10:02:32.055Z,10.82
2019-04-01T10:05:00.414Z,10.53
2019-04-01T10:07:29.157Z,7.17
2019-04-01T10:09:57.882Z,6.10
2019-04-01T10:12:26.559Z,5.42
2019-04-01T10:14:55.053Z,4.00
2019-04-01T10:17:23.576Z,5.62
2019-04-01T10:19:52.212Z,4.72
2019-04-01T10:22:20.849Z,4.92
2019-04-01T10:24:49.467Z,5.62
2019-04-01T10:27:18.041Z,4.10
2019-04-01T10:29:46.779Z,4.80
2019-04-01T10:32:15.698Z,4.65
2019-04-01T10:34:44.181Z,5.50
2019-04-01T10:37:12.807Z,5.72
2019-04-01T10:39:41.654Z,5.60
2019-04-01T10:42:10.290Z,4.83
2019-04-01T10:44:38.790Z,5.12
2019-04-01T10:47:07.635Z,5.10
2019-04-01T10:49:36.388Z,4.42
2019-04-01T10:52:04.997Z,4.58
2019-04-01T10:54:33.930Z,3.33
2019-04-01T10:57:02.555Z,5.22
2019-04-01T10:59:31.153Z,5.10
2019-04-01T11:01:59.676Z,4.45
2019-04-01T11:04:28.321Z,5.83
2019-04-01T11:06:57.018Z,5.42
2019-04-01T11:09:37.688Z,5.00
2019-04-01T11:11:55.986Z,4.90
2019-04-01T11:14:24.936Z,4.53
2019-04-01T11:16:53.633Z,4.28
2019-04-01T11:19:22.248Z,4.03
2019-04-01T11:21:50.819Z,4.37
2019-04-01T11:24:19.499Z,4.35
2019-04-01T11:26:48.329Z,4.90
2019-04-01T11:29:16.892Z,4.55
2019-04-01T11:31:45.563Z,4.55
2019-04-01T11:34:14.841Z,4.75
2019-04-01T11:36:43.506Z,3.85
2019-04-01T11:39:13.406Z,3.50
2019-04-01T11:41:42.086Z,4.10
2019-04-01T11:44:10.644Z,3.85
2019-04-01T11:46:39.179Z,3.25
2019-04-01T11:49:07.786Z,4.15
2019-04-01T11:51:39.715Z,3.62
2019-04-01T11:54:08.262Z,3.75
2019-04-01T11:56:37.155Z,5.17
2019-04-01T11:59:05.783Z,5.20
2019-04-01T12:01:36.750Z,6.05
2019-04-01T12:04:04.799Z,4.65
2019-04-01T12:06:33.393Z,4.67
2019-04-01T12:09:02.046Z,5.25
2019-04-01T12:11:30.550Z,4.65
2019-04-01T12:13:59.180Z,4.80
2019-04-01T12:16:28.084Z,6.10
2019-04-01T12:18:56.638Z,4.87
2019-04-01T12:21:25.202Z,4.22
2019-04-01T12:23:54.033Z,5.40
2019-04-01T12:26:22.665Z,5.10
2019-04-01T12:28:51.226Z,4.95
2019-04-01T12:31:21.595Z,4.90
2019-04-01T12:33:50.745Z,3.37
2019-04-01T12:36:19.607Z,4.45
2019-04-01T12:38:48.255Z,4.28
2019-04-01T12:41:16.827Z,4.22
2019-04-01T12:43:45.465Z,4.47
2019-04-01T12:46:14.143Z,4.20
2019-04-01T12:48:42.786Z,4.40
2019-04-01T12:51:11.413Z,4.42
2019-04-01T12:53:40.087Z,4.97
2019-04-01T12:56:08.738Z,3.95
2019-04-01T12:58:37.303Z,4.00
2019-04-01T13:01:05.890Z,3.95
2019-04-01T13:03:34.521Z,3.30
2019-04-01T13:06:03.155Z,4.15
2019-04-01T13:08:31.693Z,3.35
2019-04-01T13:11:00.269Z,4.35
2019-04-01T13:13:28.904Z,4.35
2019-04-01T13:15:57.751Z,4.45
2019-04-01T13:18:26.308Z,3.90
2019-04-01T13:20:54.872Z,4.30
2019-04-01T13:23:23.508Z,4.80
2019-04-01T13:25:52.140Z,3.40
2019-04-01T13:28:20.966Z,4.20
2019-04-01T13:30:50.742Z,3.72
2019-04-01T13:33:19.220Z,3.92
2019-04-01T13:35:47.957Z,3.17
2019-04-01T13:38:16.584Z,4.47
2019-04-01T13:40:45.211Z,4.25
2019-04-01T13:43:16.813Z,3.70
2019-04-01T13:45:44.310Z,3.40
2019-04-01T13:48:12.933Z,4.00
2019-04-01T13:50:42.077Z,3.35
2019-04-01T13:53:10.660Z,3.77
2019-04-01T13:55:39.231Z,3.55
2019-04-01T13:58:08.167Z,3.83
2019-04-01T14:00:36.802Z,3.15
2019-04-01T14:03:05.534Z,4.03
2019-04-01T14:05:34.145Z,4.25
2019-04-01T14:08:05.712Z,4.22
2019-04-01T14:10:32.986Z,4.22
2019-04-01T14:13:01.671Z,4.37
2019-04-01T14:15:30.298Z,4.05
2019-04-01T14:17:58.880Z,4.30
2019-04-01T14:20:27.488Z,3.98
2019-04-01T14:22:56.133Z,3.72
2019-04-01T14:25:24.767Z,3.72
2019-04-01T14:27:53.297Z,3.83
2019-04-01T14:30:21.933Z,4.15
2019-04-01T14:32:50.575Z,3.72
2019-04-01T14:35:19.477Z,4.78
2019-04-01T14:37:47.978Z,4.00
2019-04-01T14:40:16.620Z,3.30
2019-04-01T14:42:46.996Z,3.40
2019-04-01T14:45:15.843Z,3.92
2019-04-01T14:47:56.635Z,3.90
2019-04-01T14:50:15.535Z,4.12
2019-04-01T14:52:44.096Z,4.65
2019-04-01T14:55:12.829Z,4.78
2019-04-01T14:57:41.516Z,4.92
2019-04-01T15:00:13.002Z,4.55
2019-04-01T15:02:41.734Z,5.22
2019-04-01T15:05:10.502Z,4.72
2019-04-01T15:07:39.227Z,5.85
2019-04-01T15:10:08.505Z,4.85
2019-04-01T15:12:37.129Z,4.62
2019-04-01T15:15:07.760Z,5.17
2019-04-01T15:17:37.026Z,5.37
2019-04-01T15:20:09.148Z,5.60
2019-04-01T15:22:37.715Z,6.37
2019-04-01T15:25:07.330Z,6.20
2019-04-01T15:27:35.985Z,5.62
2019-04-01T15:30:06.534Z,6.42
2019-04-01T15:32:35.159Z,5.80
2019-04-01T15:35:04.630Z,5.67
2019-04-01T15:37:33.195Z,6.85
2019-04-01T15:40:01.679Z,7.03
2019-04-01T15:42:30.605Z,6.28
2019-04-01T15:44:59.241Z,6.83
2019-04-01T15:47:27.809Z,6.53
2019-04-01T15:49:56.359Z,7.03
2019-04-01T15:52:25.006Z,7.50
2019-04-01T15:54:53.630Z,7.10
2019-04-01T15:57:22.170Z,6.92
2019-04-01T15:59:50.726Z,6.83
2019-04-01T16:02:19.443Z,7.28
2019-04-01T16:04:48.343Z,6.80
2019-04-01T16:07:16.834Z,7.25
2019-04-01T16:09:45.465Z,7.25
2019-04-01T16:12:16.015Z,7.42
2019-04-01T16:14:44.726Z,7.30
2019-04-01T16:17:13.356Z,6.95
2019-04-01T16:19:42.026Z,7.25
2019-04-01T16:22:10.519Z,7.17
2019-04-01T16:24:39.032Z,7.12
2019-04-01T16:27:07.942Z,7.30
2019-04-01T16:29:36.578Z,7.12
2019-04-01T16:32:05.144Z,6.70
2019-04-01T16:34:34.722Z,6.95
2019-04-01T16:37:03.551Z,5.95
2019-04-01T16:39:32.193Z,6.42
2019-04-01T16:42:01.071Z,7.00
2019-04-01T16:44:29.702Z,6.60
2019-04-01T16:47:00.770Z,7.08
2019-04-01T16:49:29.305Z,7.00
2019-04-01T16:51:57.931Z,7.33
2019-04-01T16:54:28.037Z,6.78
2019-04-01T16:56:56.602Z,6.35
2019-04-01T16:59:25.249Z,7.08
2019-04-01T17:01:53.953Z,7.97
2019-04-01T17:04:22.630Z,5.78
2019-04-01T17:06:51.124Z,7.80
2019-04-01T17:09:19.633Z,8.35
2019-04-01T17:11:48.583Z,7.90
2019-04-01T17:14:17.217Z,8.10
2019-04-01T17:16:46.392Z,6.87
2019-04-01T17:19:14.924Z,7.70
2019-04-01T17:21:43.559Z,8.18
2019-04-01T17:24:12.195Z,7.75
2019-04-01T17:26:50.335Z,7.67
2019-04-01T17:29:19.755Z,8.50
2019-04-01T17:31:48.387Z,7.78
2019-04-01T17:34:16.985Z,7.83
2019-04-01T17:36:45.619Z,8.50
2019-04-01T17:39:14.334Z,8.00
2019-04-01T17:41:46.315Z,8.15
2019-04-01T17:44:14.543Z,7.62
2019-04-01T17:46:43.147Z,6.20
2019-04-01T17:49:11.836Z,6.47
2019-04-01T17:51:40.468Z,7.03
2019-04-01T17:54:08.972Z,7.10
2019-04-01T17:56:37.806Z,6.72
2019-04-01T17:59:06.443Z,7.58
2019-04-01T18:01:35.078Z,8.18
2019-04-01T18:04:03.687Z,7.72
2019-04-01T18:06:32.328Z,9.13
2019-04-01T18:09:01.028Z,8.55
2019-04-01T18:11:29.652Z,7.53
2019-04-01T18:13:58.219Z,9.18
2019-04-01T18:16:26.853Z,7.83
2019-04-01T18:18:55.521Z,7.87
2019-04-01T18:21:24.042Z,8.40
2019-04-01T18:23:52.609Z,10.13
2019-04-01T18:26:21.322Z,10.13
2019-04-01T18:28:49.963Z,10.32
2019-04-01T18:31:18.452Z,9.93
2019-04-01T18:33:56.081Z,10.95
2019-04-01T18:36:17.453Z,9.68
2019-04-01T18:38:46.470Z,10.63
2019-04-01T18:41:15.290Z,11.20
2019-04-01T18:43:43.872Z,9.98
2019-04-01T18:46:12.500Z,9.48
2019-04-01T18:48:41.154Z,9.00
2019-04-01T18:51:09.792Z,9.73
2019-04-01T18:53:38.424Z,10.05
2019-04-01T18:56:06.961Z,10.68
2019-04-01T18:58:35.470Z,11.28
2019-04-01T19:01:04.589Z,10.80
2019-04-01T19:03:33.476Z,10.85
2019-04-01T19:06:02.038Z,9.40
2019-04-01T19:08:30.541Z,9.73
2019-04-01T19:11:02.497Z,9.30
2019-04-01T19:13:29.585Z,8.73
2019-04-01T19:15:59.256Z,9.08
2019-04-01T19:18:28.350Z,8.60
2019-04-01T19:21:01.687Z,8.83
2019-04-01T19:23:27.329Z,7.70
2019-04-01T19:25:55.873Z,8.00
2019-04-01T19:28:24.503Z,7.87
2019-04-01T19:30:52.991Z,8.50
2019-04-01T19:33:21.530Z,7.70
2019-04-01T19:35:50.172Z,7.55
2019-04-01T19:38:21.311Z,7.45
2019-04-01T19:40:49.164Z,7.78
2019-04-01T19:43:17.666Z,7.22
2019-04-01T19:45:46.370Z,7.90
2019-04-01T19:48:15.235Z,7.40
2019-04-01T19:50:43.734Z,7.10
2019-04-01T19:53:12.225Z,7.22
2019-04-01T19:55:43.720Z,8.30
2019-04-01T19:58:11.423Z,8.10
2019-04-01T20:00:39.923Z,7.65
2019-04-01T20:03:08.605Z,7.42
2019-04-01T20:05:37.267Z,9.20
2019-04-01T20:08:05.842Z,9.35
2019-04-01T20:10:34.504Z,7.47
2019-04-01T20:13:03.139Z,8.58
2019-04-01T20:15:31.704Z,8.70
2019-04-01T20:18:00.384Z,8.30
2019-04-01T20:20:29.014Z,8.28
2019-04-01T20:22:57.645Z,7.92
2019-04-01T20:25:26.251Z,7.80
2019-04-01T20:27:54.750Z,8.75
2019-04-01T20:30:23.891Z,9.18
2019-04-01T20:32:52.586Z,8.20
2019-04-01T20:35:23.496Z,8.40
2019-04-01T20:37:51.465Z,8.15
2019-04-01T20:40:20.437Z,8.18
2019-04-01T20:42:49.070Z,8.38
2019-04-01T20:45:17.735Z,8.48
2019-04-01T20:47:46.414Z,6.72
2019-04-01T20:50:16.544Z,8.30
2019-04-01T20:52:45.218Z,8.43
2019-04-01T20:55:14.254Z,6.87
2019-04-01T20:57:42.750Z,7.80
2019-04-01T21:00:11.485Z,7.90
2019-04-01T21:02:40.192Z,7.72
2019-04-01T21:05:09.349Z,6.05
2019-04-01T21:07:37.859Z,6.17
2019-04-01T21:10:07.824Z,6.00
2019-04-01T21:12:37.246Z,5.97
2019-04-01T21:15:07.458Z,6.28
2019-04-01T21:17:35.998Z,6.10
2019-04-01T21:20:06.832Z,5.47
2019-04-01T21:22:36.628Z,5.42
2019-04-01T21:25:07.041Z,5.33
2019-04-01T21:27:35.656Z,5.08
2019-04-01T21:30:07.022Z,4.80
2019-04-01T21:32:35.704Z,3.83
2019-04-01T21:35:05.433Z,4.65
2019-04-01T21:37:35.026Z,3.60
2019-04-01T21:40:05.391Z,4.45
2019-04-01T21:42:34.128Z,4.20
2019-04-01T21:45:03.002Z,4.28
2019-04-01T21:47:31.641Z,4.03
2019-04-01T21:50:00.149Z,4.17
2019-04-01T21:52:28.659Z,3.98
2019-04-01T21:54:57.458Z,4.83
2019-04-01T21:57:26.212Z,3.55
2019-04-01T21:59:54.744Z,4.83
2019-04-01T22:02:35.205Z,4.55
2019-04-01T22:04:53.734Z,4.92
2019-04-01T22:07:22.328Z,4.60
2019-04-01T22:09:50.967Z,4.92
2019-04-01T22:12:19.584Z,4.37
2019-04-01T22:14:48.207Z,3.92
2019-04-01T22:17:17.097Z,4.15
2019-04-01T22:19:45.667Z,4.40
2019-04-01T22:22:14.333Z,4.28
2019-04-01T22:24:42.849Z,3.67
2019-04-01T22:27:11.414Z,4.47
2019-04-01T22:29:40.089Z,4.40
2019-04-01T22:32:08.721Z,4.22
2019-04-01T22:34:38.070Z,7.92
2019-04-01T22:37:08.113Z,13.53
2019-04-01T22:39:36.857Z,12.73
2019-04-01T22:42:05.512Z,11.03
2019-04-01T22:44:34.031Z,9.95
2019-04-01T22:47:02.666Z,10.13
2019-04-01T22:49:32.066Z,10.48
2019-04-01T22:52:00.679Z,9.63
2019-04-01T22:54:30.216Z,12.70
2019-04-01T22:56:59.631Z,11.88
2019-04-01T22:59:28.240Z,11.73
2019-04-01T23:01:59.372Z,11.80
2019-04-01T23:04:27.117Z,13.00
2019-04-01T23:06:55.916Z,17.20
2019-04-01T23:09:24.418Z,11.22
2019-04-01T23:11:53.496Z,9.55
2019-04-01T23:14:22.529Z,6.85
2019-04-01T23:16:51.166Z,6.65
2019-04-01T23:19:19.734Z,6.65
2019-04-01T23:21:48.327Z,5.50
2019-04-01T23:24:16.953Z,5.80
2019-04-01T23:26:45.590Z,5.70
2019-04-01T23:29:14.129Z,5.53
2019-04-01T23:31:42.698Z,5.78
2019-04-01T23:34:11.341Z,6.12
2019-04-01T23:36:40.195Z,7.47
2019-04-01T23:39:09.597Z,7.90
2019-04-01T23:41:38.089Z,8.08
2019-04-01T23:44:06.753Z,8.35
2019-04-01T23:46:35.398Z,8.23
2019-04-01T23:49:04.061Z,7.50
2019-04-01T23:51:33.540Z,7.87
2019-04-01T23:54:02.276Z,8.00
2019-04-01T23:56:31.275Z,8.53
2019-04-01T23:58:59.918Z,9.60
